This is the latest recevied weather packets stored in our database for station/object OK1VCF-8. If no packets are shown the sender has not sent any weather packets the latest 10 day(s).
| Time | Temp. | Humidity | Pressure | Rain* | Wind** | Luminosity | Snow |
|---|---|---|---|---|---|---|---|
| 1777825149 | 32.22° C | 18% | 1012.8 hPa | - | - | - | - |
| 1777824710 | 34.44° C | 16% | 1012.7 hPa | - | - | - | - |
| 1777824271 | 35° C | 16% | 1012.9 hPa | - | - | - | - |
| 1777823831 | 35.56° C | 15% | 1012.8 hPa | - | - | - | - |
| 1777823226 | 34.44° C | 16% | 1012.9 hPa | - | - | - | - |
| 1777822786 | 34.44° C | 16% | 1013 hPa | - | - | - | - |
| 1777822346 | 34.44° C | 16% | 1013 hPa | - | - | - | - |
| 1777821907 | 34.44° C | 16% | 1013.1 hPa | - | - | - | - |
| 1777821469 | 35.56° C | 15% | 1013.1 hPa | - | - | - | - |
| 1777821028 | 37.78° C | 14% | 1013.2 hPa | - | - | - | - |
| 1777820590 | 36.67° C | 14% | 1013.3 hPa | - | - | - | - |
| 1777820148 | 36.67° C | 14% | 1013.5 hPa | - | - | - | - |
| 1777819711 | 33.89° C | 16% | 1013.6 hPa | - | - | - | - |
| 1777819273 | 30° C | 18% | 1013.7 hPa | - | - | - | - |
| 1777818832 | 28.89° C | 18% | 1013.8 hPa | - | - | - | - |
| 1777818393 | 28.33° C | 22% | 1013.6 hPa | - | - | - | - |
| 1777817956 | 28.33° C | 20% | 1014 hPa | - | - | - | - |
| 1777817516 | 27.78° C | 22% | 1014 hPa | - | - | - | - |
| 1777817075 | 27.78° C | 22% | 1014.2 hPa | - | - | - | - |
| 1777816471 | 27.78° C | 22% | 1014.2 hPa | - | - | - | - |
| 1777816031 | 27.78° C | 24% | 1014.2 hPa | - | - | - | - |
| 1777815594 | 27.78° C | 23% | 1014.4 hPa | - | - | - | - |
| 1777815156 | 27.78° C | 24% | 1014.4 hPa | - | - | - | - |
| 1777814716 | 26.67° C | 24% | 1014.6 hPa | - | - | - | - |
| 1777814277 | 27.78° C | 24% | 1014.8 hPa | - | - | - | - |
* Rain since midnight (hover to see other rain measurements)
** Current wind speed in m/s (hover to see current wind gust speed)